Etusivu
METAR-TAF:

METAR-TAF

Lentoasemat :

University-Oxford_Airport

Oxford, Mississippi, Yhdysvallat

Leveyspiiri: 34-23-04N, Pituuspiiri: 089-32-08W, korkeus merenpinnasta: 138 m

Tämänhetkinen sää

Tämä raportti tehtiin 6 minuuttia sitten, kello 00.35 UTC
Tuuli 5 kn kaakosta
Lämpötila 17°C
Kosteus 100%
Ilmanpaine 1016 hPa
Näkyvyys: 4.8 km
selkeää
utua

METAR: KUOX 280035Z AUTO 14005KT 3SM BR CLR 17/17 A3001 RMK AO2 PWINO

Aika: 18:41 (00:41 UTC)


TAF: puuttuu

Säähavainnot ja -ennusteet yli 4000 lentoasemalta (METAR- ja TAF-raportit).

Käytössä olevat sääasemat on merkitty karttaan keltaisilla ja punaisilla pisteillä.

Aseta hiiri pisteen päälle nähdäksesi sääaseman nimen.

Klikkaa sitten nähdäksesi säähavainnot ja -ennusteet.

Kartan vaihtaminen: klikkaa mustalla rastilla varustettuja vihreitä pisteitä, niin voit zoomata sisään; viivalla varustettua vihreää pistettä, niin voit zoomata ulos tai vihreitä nuolia, niin pääset viereisille kartoille.


METAR-TAF: